createdAt,value
2022-10-17T00:04:48.539Z,23.2
2022-10-17T00:08:54.810Z,21.1
2022-10-17T00:10:57.932Z,18.6
2022-10-17T00:13:01.034Z,18.3
2022-10-17T00:15:04.180Z,16.5
2022-10-17T00:17:07.297Z,15.2
2022-10-17T00:19:13.671Z,18.7
2022-10-17T00:21:16.803Z,32.5
2022-10-17T00:24:23.112Z,22.6
2022-10-17T00:26:26.227Z,31.3
2022-10-17T00:28:29.426Z,15.9
2022-10-17T00:30:32.500Z,20.9
2022-10-17T00:32:38.835Z,26.8
2022-10-17T00:34:41.944Z,25.4
2022-10-17T00:36:45.100Z,41.3
2022-10-17T00:38:48.232Z,25.7
2022-10-17T00:42:54.490Z,27.7
2022-10-17T00:47:03.997Z,33.4
2022-10-17T00:49:07.138Z,18
2022-10-17T00:55:16.543Z,19.5
2022-10-17T00:57:19.694Z,27.2
2022-10-17T01:01:29.238Z,18.3
2022-10-17T01:03:32.312Z,23.9
2022-10-17T01:05:35.458Z,43.9
2022-10-17T01:09:41.729Z,28.7
2022-10-17T01:15:54.354Z,22.9
2022-10-17T01:17:57.481Z,25.9
2022-10-17T01:21:03.792Z,29.8
2022-10-17T01:23:06.921Z,19.6
2022-10-17T01:25:10.082Z,28.9
2022-10-17T01:27:13.213Z,26.3
2022-10-17T01:29:19.578Z,17.6
2022-10-17T01:31:22.723Z,20.6
2022-10-17T01:33:25.856Z,24.5
2022-10-17T01:35:28.986Z,29.9
2022-10-17T01:37:32.113Z,33.7
2022-10-17T01:39:36.999Z,19.1
2022-10-17T01:41:38.398Z,26
2022-10-17T01:43:44.761Z,23.4
2022-10-17T01:45:47.885Z,30.8
2022-10-17T01:47:51.044Z,25
2022-10-17T01:49:54.176Z,26.8
2022-10-17T01:51:57.292Z,22.9
2022-10-17T01:54:00.441Z,28.5
2022-10-17T01:56:03.565Z,30.1
2022-10-17T01:58:09.937Z,44
2022-10-17T02:00:13.072Z,21.7
2022-10-17T02:02:16.197Z,28.2
2022-10-17T02:06:22.454Z,24.5
2022-10-17T02:08:25.574Z,49.4
2022-10-17T02:10:28.711Z,28.7
2022-10-17T02:12:35.075Z,24.2
2022-10-17T02:14:38.210Z,29.9
2022-10-17T02:16:41.332Z,28.5
2022-10-17T02:19:03.368Z,30.8
2022-10-17T02:21:06.527Z,28.3
2022-10-17T02:23:09.750Z,43
2022-10-17T02:25:15.988Z,34.9
2022-10-17T02:27:19.150Z,26.9
2022-10-17T02:29:22.244Z,35.3
2022-10-17T02:31:25.381Z,23.7
2022-10-17T02:33:28.524Z,21.5
2022-10-17T02:35:31.659Z,25.4
2022-10-17T02:37:34.766Z,31.9
2022-10-17T02:39:41.137Z,29.3
2022-10-17T02:41:44.274Z,28.3
2022-10-17T02:43:48.984Z,28.5
2022-10-17T02:45:52.079Z,38.9
2022-10-17T02:47:55.202Z,49.7
2022-10-17T02:49:58.340Z,23.5
2022-10-17T02:52:01.471Z,20.6
2022-10-17T02:54:07.825Z,28.6
2022-10-17T02:56:10.931Z,28.1
2022-10-17T02:58:14.083Z,22.8
2022-10-17T03:00:17.223Z,34.4
2022-10-17T03:02:20.341Z,22.6
2022-10-17T03:04:23.477Z,30.9
2022-10-17T03:06:26.626Z,29.5
2022-10-17T03:08:33.025Z,41.3
2022-10-17T03:10:36.131Z,34.3
2022-10-17T03:12:39.262Z,35.1
2022-10-17T03:13:42.427Z,33.4
2022-10-17T03:15:45.562Z,27.4
2022-10-17T03:17:48.705Z,31.5
2022-10-17T03:19:51.834Z,49
2022-10-17T03:28:07.572Z,36.7
2022-10-17T03:30:10.720Z,28.8
2022-10-17T03:34:16.955Z,28.5
2022-10-17T03:40:29.579Z,36.3
2022-10-17T03:44:35.832Z,44.7
2022-10-17T03:46:38.966Z,35.2
2022-10-17T03:48:42.097Z,33.8
2022-10-17T03:50:48.466Z,49.5
2022-10-17T03:52:51.585Z,59.3
2022-10-17T03:59:00.983Z,41.2
2022-10-17T04:01:04.123Z,40.6
2022-10-17T04:03:07.222Z,46.1
2022-10-17T04:07:16.748Z,44.7
2022-10-17T04:09:19.802Z,62.9
2022-10-17T04:10:22.981Z,39.6
2022-10-17T04:14:29.255Z,40.1
2022-10-17T04:16:32.375Z,57
2022-10-17T04:18:38.738Z,42.8
2022-10-17T04:20:41.855Z,51.3
2022-10-17T04:22:44.982Z,54.3
2022-10-17T04:24:48.133Z,37.1
2022-10-17T04:26:51.248Z,40.1
2022-10-17T04:28:54.373Z,37.2
2022-10-17T04:30:57.491Z,44.8
2022-10-17T04:33:03.876Z,35.9
2022-10-17T04:35:07.000Z,54.3
2022-10-17T04:37:10.141Z,28.3
2022-10-17T04:41:16.396Z,40.6
2022-10-17T04:43:19.519Z,45.6
2022-10-17T04:45:22.653Z,42.9
2022-10-17T04:47:29.023Z,48.3
2022-10-17T04:49:32.212Z,34.5
2022-10-17T04:51:35.269Z,49.4
2022-10-17T04:53:38.409Z,41.6
2022-10-17T04:59:47.808Z,46.3
2022-10-17T05:07:03.612Z,41.4
2022-10-17T05:09:06.754Z,50.7
2022-10-17T05:11:09.862Z,48.1
2022-10-17T05:13:13.007Z,40.3
2022-10-17T05:15:19.349Z,46.6
2022-10-17T05:17:22.498Z,61.1
2022-10-17T05:19:25.600Z,35.8
2022-10-17T05:21:28.788Z,33.2
2022-10-17T05:23:31.891Z,40.6
2022-10-17T05:25:35.037Z,60
2022-10-17T05:27:38.142Z,45.4
2022-10-17T05:29:44.488Z,41.6
2022-10-17T05:31:47.617Z,44.4
2022-10-17T05:33:50.758Z,43
2022-10-17T05:35:53.893Z,34.3
2022-10-17T05:37:57.038Z,29.2
2022-10-17T05:40:00.140Z,33.9
2022-10-17T05:42:03.281Z,39.1
2022-10-17T05:44:09.529Z,25.6
2022-10-17T05:46:12.572Z,38.3
2022-10-17T05:48:15.702Z,22.3
2022-10-17T05:50:18.711Z,37.3
2022-10-17T05:52:21.740Z,36.2
2022-10-17T05:54:24.759Z,36.3
2022-10-17T05:56:27.803Z,29.3
2022-10-17T05:58:50.614Z,24.4
2022-10-17T06:00:37.049Z,29.3
2022-10-17T06:02:40.006Z,28.9
2022-10-17T06:05:09.533Z,22.5
2022-10-17T06:07:12.569Z,30.4
2022-10-17T06:09:15.583Z,21.7
2022-10-17T06:13:24.790Z,20.4
2022-10-17T06:15:27.815Z,29.5
2022-10-17T06:21:36.893Z,21.8
2022-10-17T06:23:39.927Z,17.5
2022-10-17T06:25:46.093Z,22.1
2022-10-17T06:27:49.141Z,15.4
2022-10-17T06:29:52.140Z,17.6
2022-10-17T06:31:55.170Z,22
2022-10-17T06:33:58.212Z,21.4
2022-10-17T06:36:01.263Z,21.1
2022-10-17T06:38:04.283Z,17
2022-10-17T06:40:10.456Z,14.3
2022-10-17T06:42:13.472Z,16.2
2022-10-17T06:44:16.500Z,22.2
2022-10-17T06:46:19.516Z,19.1
2022-10-17T06:48:22.561Z,13.2
2022-10-17T06:50:25.623Z,44.5
2022-10-17T06:52:28.618Z,18.6
2022-10-17T06:54:34.780Z,15.6
2022-10-17T06:56:37.790Z,27.5
2022-10-17T06:58:40.821Z,29.7
2022-10-17T06:59:43.916Z,16.2
2022-10-17T07:01:47.290Z,13.2
2022-10-17T07:03:49.971Z,31
2022-10-17T07:05:52.997Z,12.4
2022-10-17T07:07:59.143Z,11.4
2022-10-17T07:10:02.201Z,24.8
2022-10-17T07:12:05.195Z,10.9
2022-10-17T07:14:08.247Z,22.8
2022-10-17T07:16:11.267Z,26.1
2022-10-17T07:26:29.547Z,12.5
2022-10-17T07:28:32.616Z,11.8
2022-10-17T07:32:38.587Z,17.2
2022-10-17T07:34:41.635Z,7.5
2022-10-17T07:36:47.770Z,5.7
2022-10-17T07:38:50.794Z,8.2
2022-10-17T07:40:53.832Z,13.4
2022-10-17T07:42:56.866Z,23.2
2022-10-17T07:44:59.868Z,10.5
2022-10-17T07:47:02.911Z,10.5
2022-10-17T07:49:05.921Z,15.7
2022-10-17T07:51:12.061Z,11.4
2022-10-17T07:53:15.065Z,15.9
2022-10-17T07:55:18.096Z,11.9
2022-10-17T07:56:21.164Z,14.8
2022-10-17T07:58:24.192Z,6.5
2022-10-17T08:00:27.418Z,12.4
2022-10-17T08:02:30.587Z,13.7
2022-10-17T08:04:36.358Z,9.1
2022-10-17T08:06:39.369Z,9.1
2022-10-17T08:08:42.396Z,8.6
2022-10-17T08:10:45.413Z,9.3
2022-10-17T08:12:48.427Z,12.9
2022-10-17T08:14:51.434Z,9.7
2022-10-17T08:16:54.456Z,5.9
2022-10-17T08:19:00.654Z,7.2
2022-10-17T08:21:03.645Z,14.1
2022-10-17T08:23:06.636Z,16.1
2022-10-17T08:25:09.670Z,8.1
2022-10-17T08:31:18.744Z,8.3
2022-10-17T08:35:27.904Z,28
2022-10-17T08:47:50.605Z,22.4
2022-10-17T08:52:59.723Z,16.1
2022-10-17T08:55:02.740Z,14.2
2022-10-17T08:57:05.752Z,24.9
2022-10-17T08:59:08.786Z,10.7
2022-10-17T09:01:14.927Z,10.8
2022-10-17T09:03:18.056Z,13.2
2022-10-17T09:07:23.994Z,13.1
2022-10-17T09:09:27.037Z,8.7
2022-10-17T09:11:30.049Z,24.4
2022-10-17T09:13:33.136Z,15.4
2022-10-17T09:15:39.217Z,10.8
2022-10-17T09:17:42.244Z,15
2022-10-17T09:19:45.249Z,23.1
2022-10-17T09:21:48.270Z,12.9
2022-10-17T09:23:56.078Z,8.8
2022-10-17T09:25:54.319Z,13.5
2022-10-17T09:27:57.323Z,13.8
2022-10-17T09:30:03.477Z,13.8
2022-10-17T09:34:09.551Z,16.6
2022-10-17T09:36:12.560Z,15.9
2022-10-17T09:38:15.589Z,8.4
2022-10-17T09:40:18.630Z,14.8
2022-10-17T09:42:21.636Z,23.9
2022-10-17T09:44:27.788Z,14.3
2022-10-17T09:46:30.796Z,22.1
2022-10-17T09:48:33.806Z,17.5
2022-10-17T09:51:14.979Z,17.8
2022-10-17T09:53:06.310Z,12.6
2022-10-17T09:55:09.309Z,14.2
2022-10-17T09:59:18.479Z,13.7
2022-10-17T10:01:24.013Z,10.8
2022-10-17T10:07:30.616Z,14.5
2022-10-17T10:11:39.681Z,24.3
2022-10-17T10:15:45.734Z,14.3
2022-10-17T10:17:48.755Z,13.4
2022-10-17T10:19:51.757Z,11.9
2022-10-17T10:21:54.780Z,12.1
2022-10-17T10:23:57.802Z,17.7
2022-10-17T10:26:03.943Z,16.3
2022-10-17T10:28:06.960Z,27.6
2022-10-17T10:30:10.022Z,15.1
2022-10-17T10:32:13.011Z,17.3
2022-10-17T10:34:16.085Z,14.5
2022-10-17T10:36:19.058Z,15.8
2022-10-17T10:38:22.071Z,11
2022-10-17T10:40:28.226Z,17.5
2022-10-17T10:42:31.224Z,14.1
2022-10-17T10:44:34.272Z,12.3
2022-10-17T10:45:48.315Z,10.3
2022-10-17T10:47:40.355Z,17.8
2022-10-17T10:49:43.370Z,14.9
2022-10-17T10:51:46.398Z,11
2022-10-17T10:53:52.531Z,21.5
2022-10-17T10:55:55.540Z,17.8
2022-10-17T10:57:58.571Z,5.6
2022-10-17T11:00:01.596Z,11.3
2022-10-17T11:02:04.608Z,9.6
2022-10-17T11:04:07.606Z,10.1
2022-10-17T11:06:10.636Z,7.8
2022-10-17T11:08:16.782Z,7.9
2022-10-17T11:10:19.820Z,6.2
2022-10-17T11:12:22.821Z,7.2
2022-10-17T11:14:25.843Z,5.5
2022-10-17T11:16:28.896Z,6.5
2022-10-17T11:18:31.865Z,10.6
2022-10-17T11:20:34.882Z,5.9
2022-10-17T11:22:41.052Z,11.9
2022-10-17T11:24:44.067Z,6.7
2022-10-17T11:26:47.081Z,9.9
2022-10-17T11:28:50.196Z,6.3
2022-10-17T11:30:53.115Z,8
2022-10-17T11:32:56.128Z,10.9
2022-10-17T11:34:59.139Z,30.5
2022-10-17T11:37:05.274Z,9.5
2022-10-17T11:39:08.295Z,9.9
2022-10-17T11:41:11.300Z,6.3
2022-10-17T11:46:20.404Z,4.7
2022-10-17T11:48:23.453Z,5.3
2022-10-17T11:52:51.702Z,3.2
2022-10-17T11:54:35.626Z,4.9
2022-10-17T11:56:42.766Z,4.6
2022-10-17T11:58:41.641Z,7.2
2022-10-17T12:00:47.515Z,5.6
2022-10-17T12:02:47.675Z,3.7
2022-10-17T12:04:53.868Z,25.5
2022-10-17T12:06:56.810Z,11
2022-10-17T12:08:59.832Z,5.8
2022-10-17T12:11:02.846Z,3.1
2022-10-17T12:13:05.845Z,4.1
2022-10-17T12:15:08.862Z,9.8
2022-10-17T12:17:11.850Z,2.6
2022-10-17T12:19:17.992Z,11.4
2022-10-17T12:21:21.005Z,5
2022-10-17T12:23:24.009Z,3.9
2022-10-17T12:27:30.446Z,3.1
2022-10-17T12:33:42.162Z,2.4
2022-10-17T12:35:45.171Z,2.8
2022-10-17T12:37:48.167Z,2.9
2022-10-17T12:38:51.225Z,2.2
2022-10-17T12:40:54.226Z,2.2
2022-10-17T12:42:57.238Z,7.5
2022-10-17T12:45:00.226Z,7.5
2022-10-17T12:47:06.345Z,11
2022-10-17T12:49:09.358Z,4.8
2022-10-17T12:51:34.303Z,2.2
2022-10-17T12:53:18.398Z,3.4
2022-10-17T12:55:18.360Z,2.2
2022-10-17T12:57:21.341Z,9.9
2022-10-17T12:59:24.348Z,3.9
2022-10-17T13:01:30.519Z,3.3
2022-10-17T13:03:33.471Z,9.9
2022-10-17T13:05:36.470Z,8
2022-10-17T13:07:39.488Z,4
2022-10-17T13:09:42.475Z,6.7
2022-10-17T13:13:48.469Z,11
2022-10-17T13:15:54.592Z,15.4
2022-10-17T13:17:57.585Z,16.3
2022-10-17T13:20:00.616Z,4.7
2022-10-17T13:22:06.937Z,11.4
2022-10-17T13:24:06.620Z,7.7
2022-10-17T13:26:09.628Z,2.5
2022-10-17T13:28:12.632Z,12.1
2022-10-17T13:30:19.113Z,7.9
2022-10-17T13:32:21.939Z,11.7
2022-10-17T13:34:24.791Z,4.6
2022-10-17T13:36:54.208Z,9.6
2022-10-17T13:38:57.208Z,4.7
2022-10-17T13:41:10.890Z,7.1
2022-10-17T13:43:06.309Z,14
2022-10-17T13:45:09.323Z,5.7
2022-10-17T13:47:12.347Z,6.5
2022-10-17T13:49:15.334Z,9.2
2022-10-17T13:51:18.324Z,6.9
2022-10-17T13:53:21.329Z,6.7
2022-10-17T13:55:24.337Z,7.2
2022-10-17T13:57:30.707Z,8.5
2022-10-17T13:59:33.481Z,10.2
2022-10-17T14:01:36.500Z,12.4
2022-10-17T14:03:48.133Z,5.6
2022-10-17T14:05:42.507Z,11.8
2022-10-17T14:08:05.698Z,7.8
2022-10-17T14:09:48.513Z,6.3
2022-10-17T14:11:54.634Z,13.6
2022-10-17T14:13:57.633Z,18.8
2022-10-17T14:16:00.645Z,10.6
2022-10-17T14:18:07.572Z,8.2
2022-10-17T14:20:34.411Z,10.3
2022-10-17T14:22:09.658Z,9.9
2022-10-17T14:24:12.665Z,9.3
2022-10-17T14:26:18.787Z,9.1
2022-10-17T14:28:21.835Z,9.3
2022-10-17T14:30:38.804Z,6.6
2022-10-17T14:31:27.883Z,19.8
2022-10-17T14:33:32.448Z,9
2022-10-17T14:35:41.939Z,6.9
2022-10-17T14:37:38.410Z,15.5
2022-10-17T14:39:44.537Z,12.3
2022-10-17T14:41:47.673Z,9.1
2022-10-17T14:43:50.575Z,8.5
2022-10-17T14:45:53.576Z,10.6
2022-10-17T14:47:56.577Z,8.9
2022-10-17T14:49:59.589Z,14
2022-10-17T14:52:07.979Z,9.9
2022-10-17T14:54:08.720Z,8.1
2022-10-17T14:56:11.724Z,5.9
2022-10-17T14:58:14.732Z,3.8
2022-10-17T15:00:17.747Z,13.4
2022-10-17T15:02:20.752Z,5.3
2022-10-17T15:04:23.764Z,7.1
2022-10-17T15:06:26.770Z,5.1
2022-10-17T15:08:32.959Z,4.5
2022-10-17T15:10:35.947Z,8.6
2022-10-17T15:12:43.625Z,5
2022-10-17T15:14:41.925Z,9.6
2022-10-17T15:16:44.906Z,4.1
2022-10-17T15:18:47.929Z,8.5
2022-10-17T15:20:59.507Z,9
2022-10-17T15:22:57.039Z,6.5
2022-10-17T15:25:00.024Z,7
2022-10-17T15:27:03.033Z,16
2022-10-17T15:28:06.107Z,8.4
2022-10-17T15:30:09.098Z,6
2022-10-17T15:32:12.128Z,7.5
2022-10-17T15:34:15.116Z,5.6
2022-10-17T15:36:21.209Z,9.9
2022-10-17T15:38:24.237Z,13
2022-10-17T15:40:27.228Z,10.9
2022-10-17T15:42:30.258Z,10.3
2022-10-17T15:44:33.248Z,13.9
2022-10-17T15:46:36.271Z,10.5
2022-10-17T15:48:39.281Z,15.9
2022-10-17T15:50:45.393Z,11.6
2022-10-17T15:52:48.404Z,6.6
2022-10-17T15:54:51.435Z,7.2
2022-10-17T15:56:54.439Z,6.1
2022-10-17T15:58:57.447Z,9.2
2022-10-17T16:01:00.545Z,10.9
2022-10-17T16:03:03.479Z,6.8
2022-10-17T16:05:09.615Z,17.7
2022-10-17T16:07:12.621Z,11.7
2022-10-17T16:15:24.660Z,8.4
2022-10-17T16:21:36.855Z,27.9
2022-10-17T16:23:39.849Z,20.5
2022-10-17T16:26:45.939Z,11.8
2022-10-17T16:28:48.984Z,25.1
2022-10-17T16:30:51.964Z,12.4
2022-10-17T16:32:58.086Z,17.7
2022-10-17T16:35:01.116Z,19.9
2022-10-17T16:37:04.136Z,13
2022-10-17T16:39:07.136Z,22.3
2022-10-17T16:41:10.178Z,14.4
2022-10-17T16:43:13.167Z,21.9
2022-10-17T16:45:16.191Z,21.3
2022-10-17T16:47:22.342Z,19.6
2022-10-17T16:49:25.360Z,17.2
2022-10-17T16:51:28.368Z,19.2
2022-10-17T16:55:34.402Z,15.9
2022-10-17T16:57:37.499Z,32.8
2022-10-17T16:59:40.436Z,31.9
2022-10-17T17:01:46.590Z,32.3
2022-10-17T17:03:49.615Z,25.6
2022-10-17T17:05:52.636Z,22.4
2022-10-17T17:07:55.650Z,25.1
2022-10-17T17:09:58.661Z,20.1
2022-10-17T17:12:01.691Z,28.1
2022-10-17T17:20:16.849Z,31.9
2022-10-17T17:22:44.380Z,26.3
2022-10-17T17:24:47.392Z,31.7
2022-10-17T17:26:50.408Z,17.9
2022-10-17T17:28:56.622Z,22.1
2022-10-17T17:30:59.565Z,24
2022-10-17T17:33:02.572Z,15.2
2022-10-17T17:35:05.599Z,23.1
2022-10-17T17:37:08.625Z,26.1
2022-10-17T17:41:14.629Z,17.8
2022-10-17T17:43:20.798Z,16.9
2022-10-17T17:45:23.792Z,20.1
2022-10-17T17:47:26.799Z,17.5
2022-10-17T17:49:29.828Z,32.6
2022-10-17T17:53:35.855Z,26
2022-10-17T17:55:38.870Z,32.3
2022-10-17T17:57:45.006Z,26.2
2022-10-17T17:59:48.001Z,34.3
2022-10-17T18:01:51.084Z,21.8
2022-10-17T18:03:54.098Z,28.2
2022-10-17T18:05:57.087Z,25.4
2022-10-17T18:08:00.156Z,27.5
2022-10-17T18:10:03.226Z,26.4
2022-10-17T18:12:09.280Z,27.3
2022-10-17T18:14:12.285Z,24.3
2022-10-17T18:16:15.310Z,24
2022-10-17T18:17:18.372Z,23.7
2022-10-17T18:19:21.551Z,24.3
2022-10-17T18:23:27.414Z,20.8
2022-10-17T18:27:36.605Z,26.4
2022-10-17T18:33:45.635Z,32.2
2022-10-17T18:37:51.683Z,37.5
2022-10-17T18:39:57.820Z,47.3
2022-10-17T18:42:00.832Z,44.8
2022-10-17T18:46:10.864Z,42.7
2022-10-17T18:48:09.907Z,32.7
2022-10-17T18:52:15.940Z,35.8
2022-10-17T18:58:28.117Z,74.5
2022-10-17T19:04:37.207Z,36.9
2022-10-17T19:06:40.172Z,39
2022-10-17T19:08:46.325Z,44.1
2022-10-17T19:10:49.354Z,45.3
2022-10-17T19:12:52.348Z,68.7
2022-10-17T19:13:55.434Z,48.5
2022-10-17T19:15:58.453Z,62
2022-10-17T19:18:01.472Z,49.4
2022-10-17T19:22:10.628Z,66.5
2022-10-17T19:26:16.652Z,54.3
2022-10-17T19:28:19.672Z,80.2
2022-10-17T19:30:22.687Z,62.9
2022-10-17T19:32:25.690Z,72.6
2022-10-17T19:34:28.721Z,70.2
2022-10-17T19:36:34.868Z,72
2022-10-17T19:38:37.871Z,73.1
2022-10-17T19:40:40.890Z,61
2022-10-17T19:42:43.935Z,67.1
2022-10-17T19:44:46.945Z,69.3
2022-10-17T19:46:49.955Z,72.9
2022-10-17T19:48:52.983Z,72.9
2022-10-17T19:50:59.100Z,74.1
2022-10-17T19:53:02.146Z,74.4
2022-10-17T19:57:10.443Z,74.6
2022-10-17T19:59:11.264Z,84.9
2022-10-17T20:01:14.309Z,71.1
2022-10-17T20:03:17.216Z,87.7
2022-10-17T20:05:27.276Z,97.7
2022-10-17T20:07:26.368Z,80.7
2022-10-17T20:09:29.378Z,72.1
2022-10-17T20:14:40.991Z,90.6
2022-10-17T20:16:41.508Z,78.1
2022-10-17T20:18:47.634Z,80.4
2022-10-17T20:20:50.648Z,77.6
2022-10-17T20:22:53.664Z,87.6
2022-10-17T20:24:56.663Z,89.7
2022-10-17T20:26:59.697Z,80.8
2022-10-17T20:29:04.417Z,72.2
2022-10-17T20:31:07.241Z,83.8
2022-10-17T20:33:13.388Z,86.4
2022-10-17T20:35:16.419Z,74.6
2022-10-17T20:37:19.403Z,68.3
2022-10-17T20:39:22.432Z,69.8
2022-10-17T20:41:25.449Z,80.9
2022-10-17T20:43:28.464Z,72.8
2022-10-17T20:45:45.065Z,70.5
2022-10-17T20:47:44.978Z,72.1
2022-10-17T20:49:40.646Z,57.5
2022-10-17T20:51:43.655Z,67.2
2022-10-17T20:53:46.707Z,66
2022-10-17T20:55:49.691Z,66.7
2022-10-17T20:57:52.682Z,67.6
2022-10-17T20:59:55.718Z,61.8
2022-10-17T21:02:01.930Z,102.6
2022-10-17T21:04:26.907Z,76.8
2022-10-17T21:06:07.870Z,76.9
2022-10-17T21:08:37.336Z,87.1
2022-10-17T21:10:40.348Z,67.4
2022-10-17T21:14:49.466Z,77
2022-10-17T21:16:52.457Z,80.3
2022-10-17T21:18:55.469Z,62.2
2022-10-17T21:20:58.548Z,54.4
2022-10-17T21:23:01.501Z,60.8
2022-10-17T21:27:07.513Z,77.4
2022-10-17T21:29:13.648Z,65.4
2022-10-17T21:31:16.659Z,69.2
2022-10-17T21:33:19.673Z,80.4
2022-10-17T21:35:22.831Z,61.7
2022-10-17T21:37:25.703Z,65.1
2022-10-17T21:39:28.744Z,62
2022-10-17T21:41:31.727Z,66.4
2022-10-17T21:43:37.864Z,68.8
2022-10-17T21:47:55.021Z,49.6
2022-10-17T21:49:46.900Z,56.9
2022-10-17T21:55:55.949Z,69.5
2022-10-17T22:02:08.114Z,79.6
2022-10-17T22:03:11.172Z,69.6
2022-10-17T22:05:14.212Z,67.7
2022-10-17T22:07:17.230Z,70.5
2022-10-17T22:09:20.237Z,68.8
2022-10-17T22:11:26.380Z,63.3
2022-10-17T22:13:29.388Z,83.6
2022-10-17T22:15:32.403Z,69.5
2022-10-17T22:17:35.437Z,71.2
2022-10-17T22:19:38.447Z,74.3
2022-10-17T22:21:41.448Z,69.4
2022-10-17T22:23:44.470Z,74.1
2022-10-17T22:25:50.582Z,106
2022-10-17T22:27:53.624Z,76.5
2022-10-17T22:29:56.628Z,77.5
2022-10-17T22:40:14.822Z,76
2022-10-17T22:44:20.876Z,93.6
2022-10-17T22:48:26.888Z,74.5
2022-10-17T22:50:29.910Z,79.3
2022-10-17T22:52:33.249Z,78.5
2022-10-17T22:54:39.043Z,84.3
2022-10-17T22:56:42.077Z,77.8
2022-10-17T22:58:45.070Z,96.2
2022-10-17T23:01:51.212Z,72.5
2022-10-17T23:03:54.196Z,71.8
2022-10-17T23:05:57.197Z,76.3
2022-10-17T23:08:03.323Z,76.8
2022-10-17T23:10:06.346Z,62.5
2022-10-17T23:12:09.366Z,68.6
2022-10-17T23:14:12.373Z,74.6
2022-10-17T23:16:15.389Z,70.2
2022-10-17T23:18:18.438Z,64.3
2022-10-17T23:20:21.436Z,85.6
2022-10-17T23:22:27.690Z,73.4
2022-10-17T23:24:30.566Z,87.6
2022-10-17T23:26:33.622Z,94
2022-10-17T23:28:36.673Z,80.5
2022-10-17T23:30:39.651Z,78.3
2022-10-17T23:32:42.693Z,91.3
2022-10-17T23:34:45.700Z,104.6
2022-10-17T23:36:51.818Z,93.4
2022-10-17T23:43:00.878Z,87.2
2022-10-17T23:45:03.869Z,78.4
2022-10-17T23:51:16.046Z,104.6
2022-10-17T23:53:19.048Z,89.5
2022-10-17T23:55:22.099Z,90.3
2022-10-17T23:56:25.133Z,96.4
2022-10-17T23:58:28.173Z,91.4
